createdAt,value
2022-08-21T00:00:53.000Z,11.48
2022-08-21T00:01:53.000Z,11.46
2022-08-21T00:03:02.000Z,11.69
2022-08-21T00:03:54.000Z,11.58
2022-08-21T00:04:53.000Z,11.44
2022-08-21T00:05:52.000Z,11.45
2022-08-21T00:06:52.000Z,11.52
2022-08-21T00:07:53.000Z,11.42
2022-08-21T00:08:52.000Z,11.50
2022-08-21T00:09:53.000Z,11.57
2022-08-21T00:10:52.000Z,11.75
2022-08-21T00:11:52.000Z,11.72
2022-08-21T00:12:53.000Z,11.64
2022-08-21T00:13:53.000Z,11.62
2022-08-21T00:14:53.000Z,11.66
2022-08-21T00:15:52.000Z,11.59
2022-08-21T00:16:53.000Z,11.62
2022-08-21T00:17:54.000Z,11.56
2022-08-21T00:18:53.000Z,11.56
2022-08-21T00:19:52.000Z,11.56
2022-08-21T00:20:53.000Z,11.62
2022-08-21T00:21:54.000Z,11.61
2022-08-21T00:22:53.000Z,11.56
2022-08-21T00:23:53.000Z,11.64
2022-08-21T00:24:53.000Z,11.70
2022-08-21T00:25:52.000Z,11.58
2022-08-21T00:26:53.000Z,11.54
2022-08-21T00:27:53.000Z,11.61
2022-08-21T00:28:53.000Z,11.65
2022-08-21T00:29:53.000Z,11.65
2022-08-21T00:30:53.000Z,11.46
2022-08-21T00:31:53.000Z,11.42
2022-08-21T00:32:55.000Z,11.48
2022-08-21T00:33:52.000Z,11.46
2022-08-21T00:34:53.000Z,11.53
2022-08-21T00:35:53.000Z,11.54
2022-08-21T00:36:53.000Z,11.45
2022-08-21T00:37:53.000Z,11.39
2022-08-21T00:38:53.000Z,11.45
2022-08-21T00:39:53.000Z,11.44
2022-08-21T00:40:58.000Z,11.43
2022-08-21T00:41:53.000Z,11.43
2022-08-21T00:42:53.000Z,11.39
2022-08-21T00:43:53.000Z,11.31
2022-08-21T00:44:53.000Z,11.34
2022-08-21T00:45:54.000Z,11.31
2022-08-21T00:46:53.000Z,11.37
2022-08-21T00:47:55.000Z,11.30
2022-08-21T00:48:53.000Z,11.24
2022-08-21T00:49:53.000Z,11.20
2022-08-21T00:51:03.000Z,11.41
2022-08-21T00:51:56.000Z,11.36
2022-08-21T00:52:53.000Z,11.35
2022-08-21T00:53:57.000Z,11.25
2022-08-21T00:54:54.000Z,11.32
2022-08-21T00:55:55.000Z,11.24
2022-08-21T00:56:58.000Z,11.22
2022-08-21T00:57:55.000Z,11.32
2022-08-21T00:58:55.000Z,11.17
2022-08-21T00:59:56.000Z,11.25
2022-08-21T01:00:53.000Z,11.30
2022-08-21T01:01:53.000Z,11.13
2022-08-21T01:02:53.000Z,11.13
2022-08-21T01:03:53.000Z,11.23
2022-08-21T01:04:53.000Z,11.27
2022-08-21T01:05:53.000Z,11.32
2022-08-21T01:06:54.000Z,11.23
2022-08-21T01:07:55.000Z,11.20
2022-08-21T01:08:53.000Z,11.16
2022-08-21T01:09:53.000Z,11.25
2022-08-21T01:10:53.000Z,11.32
2022-08-21T01:11:53.000Z,11.24
2022-08-21T01:12:56.000Z,11.21
2022-08-21T01:13:54.000Z,11.30
2022-08-21T01:14:53.000Z,11.27
2022-08-21T01:15:56.000Z,11.44
2022-08-21T01:16:55.000Z,11.45
2022-08-21T01:17:53.000Z,11.40
2022-08-21T01:18:53.000Z,11.40
2022-08-21T01:19:57.000Z,11.35
2022-08-21T01:21:03.000Z,11.34
2022-08-21T01:21:53.000Z,11.45
2022-08-21T01:22:53.000Z,11.33
2022-08-21T01:23:54.000Z,11.40
2022-08-21T01:24:53.000Z,11.42
2022-08-21T01:25:53.000Z,11.24
2022-08-21T01:26:53.000Z,11.17
2022-08-21T01:27:53.000Z,11.12
2022-08-21T01:29:00.000Z,11.13
2022-08-21T01:29:57.000Z,11.28
2022-08-21T01:30:53.000Z,11.08
2022-08-21T01:31:53.000Z,11.04
2022-08-21T01:32:54.000Z,11.15
2022-08-21T01:33:55.000Z,11.18
2022-08-21T01:34:53.000Z,11.31
2022-08-21T01:35:53.000Z,11.05
2022-08-21T01:36:53.000Z,11.08
2022-08-21T01:37:52.000Z,11.07
2022-08-21T01:38:53.000Z,11.24
2022-08-21T01:39:53.000Z,11.07
2022-08-21T01:40:52.000Z,11.09
2022-08-21T01:41:52.000Z,11.28
2022-08-21T01:42:53.000Z,11.25
2022-08-21T01:43:53.000Z,11.24
2022-08-21T01:44:52.000Z,11.22
2022-08-21T01:45:52.000Z,11.37
2022-08-21T01:46:53.000Z,11.28
2022-08-21T01:47:52.000Z,11.32
2022-08-21T01:48:52.000Z,11.20
2022-08-21T01:49:53.000Z,11.28
2022-08-21T01:50:52.000Z,11.23
2022-08-21T01:51:53.000Z,11.13
2022-08-21T01:52:52.000Z,11.21
2022-08-21T01:53:52.000Z,11.23
2022-08-21T01:54:52.000Z,11.20
2022-08-21T01:55:52.000Z,11.20
2022-08-21T01:56:53.000Z,11.18
2022-08-21T01:57:53.000Z,11.15
2022-08-21T01:58:52.000Z,11.05
2022-08-21T01:59:53.000Z,11.17
2022-08-21T02:00:53.000Z,11.17
2022-08-21T02:01:55.000Z,11.09
2022-08-21T02:02:53.000Z,11.28
2022-08-21T02:03:52.000Z,11.19
2022-08-21T02:04:53.000Z,11.20
2022-08-21T02:05:53.000Z,11.20
2022-08-21T02:06:52.000Z,11.11
2022-08-21T02:07:55.000Z,11.22
2022-08-21T02:08:52.000Z,11.23
2022-08-21T02:09:52.000Z,11.20
2022-08-21T02:10:52.000Z,11.18
2022-08-21T02:11:53.000Z,11.10
2022-08-21T02:12:53.000Z,11.10
2022-08-21T02:13:52.000Z,11.22
2022-08-21T02:14:52.000Z,11.14
2022-08-21T02:15:52.000Z,11.17
2022-08-21T02:16:52.000Z,11.19
2022-08-21T02:17:55.000Z,11.08
2022-08-21T02:18:52.000Z,11.21
2022-08-21T02:19:52.000Z,11.20
2022-08-21T02:20:52.000Z,11.25
2022-08-21T02:21:52.000Z,11.22
2022-08-21T02:22:53.000Z,11.27
2022-08-21T02:23:52.000Z,11.24
2022-08-21T02:24:52.000Z,11.21
2022-08-21T02:26:00.000Z,11.17
2022-08-21T02:26:52.000Z,11.07
2022-08-21T02:27:53.000Z,11.23
2022-08-21T02:28:52.000Z,11.19
2022-08-21T02:29:55.000Z,11.08
2022-08-21T02:30:54.000Z,11.14
2022-08-21T02:31:52.000Z,11.22
2022-08-21T02:32:52.000Z,11.18
2022-08-21T02:33:52.000Z,11.14
2022-08-21T02:34:53.000Z,11.09
2022-08-21T02:35:54.000Z,11.11
2022-08-21T02:36:52.000Z,11.04
2022-08-21T02:37:58.000Z,11.07
2022-08-21T02:38:53.000Z,11.06
2022-08-21T02:39:53.000Z,11.17
2022-08-21T02:40:54.000Z,11.17
2022-08-21T02:41:53.000Z,11.08
2022-08-21T02:42:53.000Z,11.02
2022-08-21T02:43:53.000Z,10.90
2022-08-21T02:44:53.000Z,10.98
2022-08-21T02:45:54.000Z,10.92
2022-08-21T02:46:53.000Z,11.06
2022-08-21T02:48:02.000Z,11.11
2022-08-21T02:48:53.000Z,11.05
2022-08-21T02:49:53.000Z,11.01
2022-08-21T02:50:59.000Z,10.99
2022-08-21T02:51:53.000Z,10.88
2022-08-21T02:52:54.000Z,10.91
2022-08-21T02:53:53.000Z,11.07
2022-08-21T02:54:53.000Z,10.91
2022-08-21T02:55:53.000Z,10.94
2022-08-21T02:56:53.000Z,10.94
2022-08-21T02:57:55.000Z,10.82
2022-08-21T02:58:53.000Z,10.94
2022-08-21T02:59:53.000Z,10.99
2022-08-21T03:00:53.000Z,10.97
2022-08-21T03:01:53.000Z,11.01
2022-08-21T03:02:53.000Z,10.93
2022-08-21T03:03:53.000Z,10.91
2022-08-21T03:04:53.000Z,10.91
2022-08-21T03:05:53.000Z,10.89
2022-08-21T03:06:53.000Z,11.01
2022-08-21T03:07:53.000Z,10.97
2022-08-21T03:08:53.000Z,10.84
2022-08-21T03:09:53.000Z,10.82
2022-08-21T03:10:53.000Z,10.82
2022-08-21T03:11:53.000Z,10.75
2022-08-21T03:12:54.000Z,10.84
2022-08-21T03:13:53.000Z,10.82
2022-08-21T03:14:53.000Z,10.78
2022-08-21T03:15:53.000Z,10.82
2022-08-21T03:16:52.000Z,10.82
2022-08-21T03:17:54.000Z,10.75
2022-08-21T03:18:52.000Z,10.74
2022-08-21T03:19:52.000Z,10.77
2022-08-21T03:20:53.000Z,10.81
2022-08-21T03:21:52.000Z,10.81
2022-08-21T03:22:54.000Z,10.82
2022-08-21T03:23:53.000Z,10.85
2022-08-21T03:24:53.000Z,10.84
2022-08-21T03:25:53.000Z,10.85
2022-08-21T03:26:52.000Z,10.75
2022-08-21T03:27:53.000Z,10.88
2022-08-21T03:28:53.000Z,10.96
2022-08-21T03:29:54.000Z,10.92
2022-08-21T03:30:53.000Z,10.87
2022-08-21T03:31:55.000Z,10.72
2022-08-21T03:32:53.000Z,10.79
2022-08-21T03:33:54.000Z,10.75
2022-08-21T03:34:52.000Z,10.77
2022-08-21T03:35:58.000Z,10.86
2022-08-21T03:36:52.000Z,10.83
2022-08-21T03:37:54.000Z,10.89
2022-08-21T03:38:53.000Z,10.70
2022-08-21T03:39:53.000Z,10.83
2022-08-21T03:40:52.000Z,10.90
2022-08-21T03:41:53.000Z,10.90
2022-08-21T03:42:52.000Z,10.84
2022-08-21T03:43:53.000Z,10.84
2022-08-21T03:44:52.000Z,10.84
2022-08-21T03:45:53.000Z,10.92
2022-08-21T03:46:53.000Z,10.81
2022-08-21T03:47:58.000Z,10.86
2022-08-21T03:48:52.000Z,10.82
2022-08-21T03:49:53.000Z,10.89
2022-08-21T03:50:52.000Z,10.85
2022-08-21T03:51:53.000Z,10.80
2022-08-21T03:52:53.000Z,10.82
2022-08-21T03:53:54.000Z,10.78
2022-08-21T03:54:52.000Z,10.74
2022-08-21T03:55:53.000Z,10.72
2022-08-21T03:56:52.000Z,10.72
2022-08-21T03:57:52.000Z,10.82
2022-08-21T03:58:52.000Z,10.75
2022-08-21T03:59:53.000Z,10.75
2022-08-21T04:00:58.000Z,10.73
2022-08-21T04:01:54.000Z,10.89
2022-08-21T04:02:52.000Z,10.83
2022-08-21T04:03:52.000Z,10.82
2022-08-21T04:04:52.000Z,10.87
2022-08-21T04:05:52.000Z,10.82
2022-08-21T04:06:54.000Z,10.71
2022-08-21T04:07:54.000Z,10.84
2022-08-21T04:08:52.000Z,10.79
2022-08-21T04:09:52.000Z,10.79
2022-08-21T04:10:56.000Z,10.67
2022-08-21T04:11:53.000Z,10.66
2022-08-21T04:12:53.000Z,10.71
2022-08-21T04:13:53.000Z,10.72
2022-08-21T04:14:53.000Z,10.90
2022-08-21T04:15:54.000Z,10.92
2022-08-21T04:16:53.000Z,10.84
2022-08-21T04:17:53.000Z,10.77
2022-08-21T04:18:53.000Z,10.79
2022-08-21T04:19:52.000Z,10.64
2022-08-21T04:20:55.000Z,10.72
2022-08-21T04:21:53.000Z,10.80
2022-08-21T04:22:53.000Z,10.80
2022-08-21T04:23:56.000Z,10.84
2022-08-21T04:24:53.000Z,10.68
2022-08-21T04:25:55.000Z,10.79
2022-08-21T04:26:53.000Z,10.70
2022-08-21T04:27:53.000Z,10.72
2022-08-21T04:28:53.000Z,10.78
2022-08-21T04:29:52.000Z,10.92
2022-08-21T04:30:53.000Z,10.78
2022-08-21T04:31:53.000Z,10.70
2022-08-21T04:32:53.000Z,10.69
2022-08-21T04:33:53.000Z,10.64
2022-08-21T04:35:03.000Z,10.60
2022-08-21T04:35:53.000Z,10.73
2022-08-21T04:36:52.000Z,10.69
2022-08-21T04:37:53.000Z,10.67
2022-08-21T04:38:53.000Z,10.73
2022-08-21T04:39:53.000Z,10.65
2022-08-21T04:40:52.000Z,10.68
2022-08-21T04:41:52.000Z,10.75
2022-08-21T04:42:56.000Z,10.70
2022-08-21T04:43:54.000Z,10.74
2022-08-21T04:44:54.000Z,10.88
2022-08-21T04:45:52.000Z,10.83
2022-08-21T04:46:52.000Z,10.66
2022-08-21T04:47:55.000Z,10.70
2022-08-21T04:48:52.000Z,10.68
2022-08-21T04:49:52.000Z,10.76
2022-08-21T04:50:58.000Z,10.83
2022-08-21T04:51:52.000Z,10.70
2022-08-21T04:52:53.000Z,10.70
2022-08-21T04:53:59.000Z,10.67
2022-08-21T04:54:52.000Z,10.77
2022-08-21T04:55:54.000Z,10.72
2022-08-21T04:57:00.000Z,10.70
2022-08-21T04:57:54.000Z,10.72
2022-08-21T04:58:55.000Z,10.78
2022-08-21T04:59:52.000Z,10.92
2022-08-21T05:00:56.000Z,10.89
2022-08-21T05:01:54.000Z,10.83
2022-08-21T05:02:58.000Z,11.02
2022-08-21T05:03:56.000Z,10.90
2022-08-21T05:04:54.000Z,11.02
2022-08-21T05:05:53.000Z,11.09
2022-08-21T05:06:56.000Z,10.81
2022-08-21T05:07:52.000Z,10.77
2022-08-21T05:08:55.000Z,10.82
2022-08-21T05:09:53.000Z,10.92
2022-08-21T05:10:54.000Z,11.03
2022-08-21T05:11:53.000Z,11.12
2022-08-21T05:12:54.000Z,11.18
2022-08-21T05:13:53.000Z,11.15
2022-08-21T05:14:53.000Z,11.02
2022-08-21T05:15:53.000Z,11.08
2022-08-21T05:16:53.000Z,11.09
2022-08-21T05:17:53.000Z,11.14
2022-08-21T05:18:53.000Z,11.05
2022-08-21T05:19:53.000Z,11.09
2022-08-21T05:20:53.000Z,11.01
2022-08-21T05:21:53.000Z,11.12
2022-08-21T05:22:53.000Z,11.17
2022-08-21T05:23:53.000Z,11.08
2022-08-21T05:24:53.000Z,10.96
2022-08-21T05:25:53.000Z,10.94
2022-08-21T05:26:53.000Z,11.10
2022-08-21T05:27:53.000Z,11.14
2022-08-21T05:28:53.000Z,11.19
2022-08-21T05:29:53.000Z,11.00
2022-08-21T05:30:53.000Z,11.07
2022-08-21T05:31:53.000Z,10.98
2022-08-21T05:32:57.000Z,10.95
2022-08-21T05:33:53.000Z,11.02
2022-08-21T05:34:54.000Z,10.95
2022-08-21T05:35:54.000Z,10.96
2022-08-21T05:36:53.000Z,10.94
2022-08-21T05:37:53.000Z,10.94
2022-08-21T05:38:53.000Z,11.12
2022-08-21T05:39:53.000Z,11.02
2022-08-21T05:40:54.000Z,11.10
2022-08-21T05:41:53.000Z,11.21
2022-08-21T05:42:54.000Z,11.17
2022-08-21T05:43:53.000Z,11.19
2022-08-21T05:44:53.000Z,11.14
2022-08-21T05:45:53.000Z,11.11
2022-08-21T05:46:53.000Z,11.12
2022-08-21T05:47:53.000Z,11.05
2022-08-21T05:48:53.000Z,11.15
2022-08-21T05:49:53.000Z,11.25
2022-08-21T05:50:53.000Z,11.45
2022-08-21T05:51:52.000Z,11.38
2022-08-21T05:52:53.000Z,11.48
2022-08-21T05:53:53.000Z,11.46
2022-08-21T05:54:55.000Z,11.52
2022-08-21T05:55:53.000Z,11.55
2022-08-21T05:56:53.000Z,11.55
2022-08-21T05:57:52.000Z,11.64
2022-08-21T05:58:53.000Z,11.52
2022-08-21T05:59:53.000Z,11.51
2022-08-21T06:00:53.000Z,11.45
2022-08-21T06:01:53.000Z,11.59
2022-08-21T06:02:53.000Z,11.54
2022-08-21T06:03:52.000Z,11.50
2022-08-21T06:04:56.000Z,11.64
2022-08-21T06:05:54.000Z,11.68
2022-08-21T06:06:53.000Z,11.61
2022-08-21T06:07:53.000Z,11.63
2022-08-21T06:08:53.000Z,11.64
2022-08-21T06:09:53.000Z,11.77
2022-08-21T06:10:54.000Z,11.60
2022-08-21T06:11:52.000Z,11.79
2022-08-21T06:12:53.000Z,11.83
2022-08-21T06:13:52.000Z,11.98
2022-08-21T06:14:52.000Z,11.87
2022-08-21T06:16:02.000Z,11.86
2022-08-21T06:16:52.000Z,11.82
2022-08-21T06:17:53.000Z,11.86
2022-08-21T06:18:52.000Z,11.96
2022-08-21T06:19:52.000Z,11.91
2022-08-21T06:20:52.000Z,11.94
2022-08-21T06:21:52.000Z,11.84
2022-08-21T06:22:52.000Z,11.91
2022-08-21T06:23:52.000Z,11.81
2022-08-21T06:24:52.000Z,11.90
2022-08-21T06:25:52.000Z,11.86
2022-08-21T06:26:52.000Z,11.94
2022-08-21T06:27:52.000Z,11.84
2022-08-21T06:28:53.000Z,11.78
2022-08-21T06:29:52.000Z,11.86
2022-08-21T06:30:52.000Z,11.87
2022-08-21T06:31:52.000Z,11.95
2022-08-21T06:32:52.000Z,11.94
2022-08-21T06:33:52.000Z,11.87
2022-08-21T06:34:52.000Z,12.07
2022-08-21T06:35:52.000Z,12.03
2022-08-21T06:36:52.000Z,11.99
2022-08-21T06:37:52.000Z,12.05
2022-08-21T06:38:52.000Z,11.98
2022-08-21T06:39:52.000Z,12.05
2022-08-21T06:40:52.000Z,12.07
2022-08-21T06:41:52.000Z,12.13
2022-08-21T06:42:53.000Z,12.14
2022-08-21T06:43:54.000Z,12.06
2022-08-21T06:44:53.000Z,12.06
2022-08-21T06:45:53.000Z,12.04
2022-08-21T06:46:53.000Z,12.12
2022-08-21T06:47:53.000Z,12.13
2022-08-21T06:48:53.000Z,12.14
2022-08-21T06:49:53.000Z,12.06
2022-08-21T06:50:53.000Z,12.12
2022-08-21T06:51:53.000Z,11.97
2022-08-21T06:53:03.000Z,12.02
2022-08-21T06:53:53.000Z,12.10
2022-08-21T06:54:53.000Z,12.06
2022-08-21T06:55:53.000Z,12.16
2022-08-21T06:56:53.000Z,12.11
2022-08-21T06:57:53.000Z,12.18
2022-08-21T06:58:53.000Z,12.09
2022-08-21T06:59:53.000Z,12.18
2022-08-21T07:00:53.000Z,12.14
2022-08-21T07:01:53.000Z,12.19
2022-08-21T07:02:53.000Z,12.14
2022-08-21T07:03:53.000Z,12.25
2022-08-21T07:04:53.000Z,12.23
2022-08-21T07:05:53.000Z,12.32
2022-08-21T07:06:53.000Z,12.33
2022-08-21T07:07:53.000Z,12.33
2022-08-21T07:08:53.000Z,12.36
2022-08-21T07:09:53.000Z,12.36
2022-08-21T07:10:56.000Z,12.32
2022-08-21T07:11:55.000Z,12.31
2022-08-21T07:12:54.000Z,12.30
2022-08-21T07:13:54.000Z,12.42
2022-08-21T07:14:52.000Z,12.23
2022-08-21T07:15:52.000Z,12.29
2022-08-21T07:16:52.000Z,12.05
2022-08-21T07:17:52.000Z,12.16
2022-08-21T07:18:52.000Z,12.26
2022-08-21T07:19:52.000Z,12.28
2022-08-21T07:20:54.000Z,12.24
2022-08-21T07:21:59.000Z,12.05
2022-08-21T07:22:53.000Z,12.08
2022-08-21T07:23:53.000Z,12.06
2022-08-21T07:24:54.000Z,12.09
2022-08-21T07:25:53.000Z,12.10
2022-08-21T07:26:52.000Z,12.10
2022-08-21T07:27:53.000Z,12.15
2022-08-21T07:28:53.000Z,12.17
2022-08-21T07:29:52.000Z,12.19
2022-08-21T07:30:55.000Z,12.16
2022-08-21T07:31:52.000Z,12.07
2022-08-21T07:32:53.000Z,12.03
2022-08-21T07:33:53.000Z,12.05
2022-08-21T07:34:52.000Z,11.97
2022-08-21T07:35:53.000Z,11.97
2022-08-21T07:36:52.000Z,12.14
2022-08-21T07:37:52.000Z,12.13
2022-08-21T07:38:52.000Z,12.03
2022-08-21T07:39:52.000Z,12.16
2022-08-21T07:40:55.000Z,12.04
2022-08-21T07:41:52.000Z,12.08
2022-08-21T07:42:53.000Z,12.04
2022-08-21T07:43:52.000Z,12.01
2022-08-21T07:44:54.000Z,12.03
2022-08-21T07:45:55.000Z,11.97
2022-08-21T07:46:52.000Z,11.97
2022-08-21T07:47:52.000Z,12.01
2022-08-21T07:48:53.000Z,12.02
2022-08-21T07:49:52.000Z,12.09
2022-08-21T07:50:52.000Z,12.09
2022-08-21T07:51:53.000Z,12.02
2022-08-21T07:52:52.000Z,12.06
2022-08-21T07:53:54.000Z,12.06
2022-08-21T07:54:52.000Z,12.13
2022-08-21T07:55:56.000Z,12.20
2022-08-21T07:56:52.000Z,12.14
2022-08-21T07:57:52.000Z,12.05
2022-08-21T07:58:52.000Z,11.94
2022-08-21T07:59:52.000Z,12.01
2022-08-21T08:00:52.000Z,11.95
2022-08-21T08:01:52.000Z,12.07
2022-08-21T08:02:54.000Z,12.14
2022-08-21T08:03:52.000Z,12.19
2022-08-21T08:04:52.000Z,12.19
2022-08-21T08:05:52.000Z,12.35
2022-08-21T08:06:52.000Z,12.35
2022-08-21T08:07:53.000Z,12.36
2022-08-21T08:08:52.000Z,12.19
2022-08-21T08:09:52.000Z,12.29
2022-08-21T08:10:55.000Z,12.34
2022-08-21T08:11:52.000Z,12.29
2022-08-21T08:12:54.000Z,12.31
2022-08-21T08:13:52.000Z,12.19
2022-08-21T08:14:52.000Z,12.29
2022-08-21T08:15:52.000Z,12.31
2022-08-21T08:16:52.000Z,12.33
2022-08-21T08:17:55.000Z,12.50
2022-08-21T08:18:54.000Z,12.33
2022-08-21T08:19:52.000Z,12.43
2022-08-21T08:20:52.000Z,12.55
2022-08-21T08:21:52.000Z,12.56
2022-08-21T08:22:53.000Z,12.42
2022-08-21T08:23:52.000Z,12.38
2022-08-21T08:24:53.000Z,12.62
2022-08-21T08:25:52.000Z,12.33
2022-08-21T08:26:53.000Z,12.31
2022-08-21T08:27:52.000Z,12.33
2022-08-21T08:28:52.000Z,12.37
2022-08-21T08:29:52.000Z,12.34
2022-08-21T08:30:52.000Z,12.38
2022-08-21T08:31:52.000Z,12.40
2022-08-21T08:32:52.000Z,12.54
2022-08-21T08:33:52.000Z,12.40
2022-08-21T08:34:52.000Z,12.38
2022-08-21T08:35:53.000Z,12.34
2022-08-21T08:36:52.000Z,12.38
2022-08-21T08:37:52.000Z,12.30
2022-08-21T08:38:52.000Z,12.56
2022-08-21T08:39:53.000Z,12.69
2022-08-21T08:41:08.000Z,12.70
2022-08-21T08:42:01.000Z,12.64
2022-08-21T08:42:52.000Z,12.58
2022-08-21T08:43:58.000Z,12.43
2022-08-21T08:44:59.000Z,12.37
2022-08-21T08:45:56.000Z,12.47
2022-08-21T08:46:53.000Z,12.44
2022-08-21T08:48:06.000Z,12.46
2022-08-21T08:48:57.000Z,12.47
2022-08-21T08:50:03.000Z,12.37
2022-08-21T08:50:55.000Z,12.15
2022-08-21T08:51:59.000Z,12.33
2022-08-21T08:53:01.000Z,12.46
2022-08-21T08:53:59.000Z,12.57
2022-08-21T08:55:15.000Z,12.61
2022-08-21T08:55:52.000Z,12.56
2022-08-21T08:56:55.000Z,12.29
2022-08-21T08:57:54.000Z,12.29
2022-08-21T08:58:58.000Z,12.24
2022-08-21T08:59:58.000Z,12.43
2022-08-21T09:00:53.000Z,12.50
2022-08-21T09:01:52.000Z,12.41
2022-08-21T09:02:54.000Z,12.25
2022-08-21T09:03:52.000Z,12.32
2022-08-21T09:04:53.000Z,12.27
2022-08-21T09:06:07.000Z,12.40
2022-08-21T09:07:15.000Z,12.58
2022-08-21T09:08:11.000Z,12.67
2022-08-21T09:09:25.000Z,12.36
2022-08-21T09:10:25.000Z,12.34
2022-08-21T09:11:00.000Z,12.50
2022-08-21T09:12:02.000Z,12.27
2022-08-21T09:13:17.000Z,12.57
2022-08-21T09:14:03.000Z,12.73
2022-08-21T09:15:03.000Z,12.50
2022-08-21T09:16:03.000Z,12.39
2022-08-21T09:17:26.000Z,12.26
2022-08-21T09:18:07.000Z,12.13
2022-08-21T09:19:03.000Z,12.25
2022-08-21T09:20:15.000Z,12.23
2022-08-21T09:21:16.000Z,12.26
2022-08-21T09:22:02.000Z,12.34
2022-08-21T09:23:03.000Z,12.50
2022-08-21T09:24:13.000Z,12.52
2022-08-21T09:25:16.000Z,12.45
2022-08-21T09:26:03.000Z,12.58
2022-08-21T09:27:02.000Z,12.35
2022-08-21T09:27:53.000Z,12.51
2022-08-21T09:28:57.000Z,12.54
2022-08-21T09:29:54.000Z,12.62
2022-08-21T09:30:55.000Z,12.58
2022-08-21T09:31:53.000Z,12.58
2022-08-21T09:32:53.000Z,12.66
2022-08-21T09:34:03.000Z,12.65
2022-08-21T09:35:03.000Z,12.53
2022-08-21T09:35:55.000Z,12.55
2022-08-21T09:36:53.000Z,12.31
2022-08-21T09:38:02.000Z,12.47
2022-08-21T09:38:54.000Z,12.46
2022-08-21T09:39:53.000Z,12.44
2022-08-21T09:41:02.000Z,12.18
2022-08-21T09:42:00.000Z,12.33
2022-08-21T09:42:56.000Z,12.54
2022-08-21T09:43:53.000Z,12.42
2022-08-21T09:45:03.000Z,12.45
2022-08-21T09:46:06.000Z,11.90
2022-08-21T09:46:52.000Z,12.14
2022-08-21T09:47:53.000Z,12.33
2022-08-21T09:48:55.000Z,12.30
2022-08-21T09:49:53.000Z,12.25
2022-08-21T09:51:04.000Z,12.28
2022-08-21T09:51:54.000Z,12.20
2022-08-21T09:53:00.000Z,12.43
2022-08-21T09:54:14.000Z,12.49
2022-08-21T09:54:55.000Z,12.15
2022-08-21T09:56:01.000Z,12.38
2022-08-21T09:57:10.000Z,12.31
2022-08-21T09:57:52.000Z,12.45
2022-08-21T09:58:52.000Z,12.46
2022-08-21T09:59:53.000Z,12.48
2022-08-21T10:00:58.000Z,12.38
2022-08-21T10:01:53.000Z,12.42
2022-08-21T10:02:53.000Z,12.53
2022-08-21T10:04:02.000Z,12.49
2022-08-21T10:04:59.000Z,12.36
2022-08-21T10:06:03.000Z,12.21
2022-08-21T10:06:52.000Z,12.50
2022-08-21T10:07:52.000Z,12.29
2022-08-21T10:09:02.000Z,12.53
2022-08-21T10:10:08.000Z,12.35
2022-08-21T10:11:03.000Z,12.15
2022-08-21T10:12:02.000Z,12.46
2022-08-21T10:13:03.000Z,12.42
2022-08-21T10:14:16.000Z,12.19
2022-08-21T10:15:05.000Z,12.25
2022-08-21T10:16:16.000Z,12.04
2022-08-21T10:17:05.000Z,12.16
2022-08-21T10:18:09.000Z,12.10
2022-08-21T10:19:06.000Z,12.06
2022-08-21T10:20:03.000Z,12.19
2022-08-21T10:21:13.000Z,12.19
2022-08-21T10:22:03.000Z,12.11
2022-08-21T10:23:13.000Z,12.15
2022-08-21T10:24:04.000Z,11.92
2022-08-21T10:25:03.000Z,12.16
2022-08-21T10:26:05.000Z,11.99
2022-08-21T10:27:03.000Z,11.76
2022-08-21T10:28:16.000Z,11.70
2022-08-21T10:29:06.000Z,11.69
2022-08-21T10:30:13.000Z,11.69
2022-08-21T10:31:12.000Z,11.66
2022-08-21T10:32:16.000Z,11.66
2022-08-21T10:33:07.000Z,11.68
2022-08-21T10:34:13.000Z,11.72
2022-08-21T10:35:10.000Z,11.75
2022-08-21T10:36:12.000Z,11.74
2022-08-21T10:37:10.000Z,11.93
2022-08-21T10:38:03.000Z,11.59
2022-08-21T10:39:13.000Z,11.66
2022-08-21T10:40:03.000Z,11.55
2022-08-21T10:41:08.000Z,11.73
2022-08-21T10:42:13.000Z,12.06
2022-08-21T10:43:15.000Z,11.96
2022-08-21T10:44:03.000Z,12.05
2022-08-21T10:45:15.000Z,12.05
2022-08-21T10:46:03.000Z,11.77
2022-08-21T10:47:03.000Z,11.58
2022-08-21T10:48:05.000Z,11.62
2022-08-21T10:48:58.000Z,11.51
2022-08-21T10:50:03.000Z,11.74
2022-08-21T10:51:03.000Z,11.83
2022-08-21T10:52:15.000Z,11.55
2022-08-21T10:53:04.000Z,11.73
2022-08-21T10:54:12.000Z,11.81
2022-08-21T10:55:02.000Z,11.75
2022-08-21T10:56:05.000Z,11.79
2022-08-21T10:57:01.000Z,11.71
2022-08-21T10:58:00.000Z,11.68
2022-08-21T10:59:25.000Z,11.78
2022-08-21T10:59:59.000Z,11.92
2022-08-21T11:01:02.000Z,11.54
2022-08-21T11:02:02.000Z,11.56
2022-08-21T11:03:13.000Z,11.52
2022-08-21T11:04:07.000Z,11.13
2022-08-21T11:05:02.000Z,11.23
2022-08-21T11:06:05.000Z,11.11
2022-08-21T11:07:03.000Z,11.36
2022-08-21T11:08:03.000Z,11.36
2022-08-21T11:08:58.000Z,11.35
2022-08-21T11:09:57.000Z,11.34
2022-08-21T11:11:05.000Z,11.39
2022-08-21T11:12:03.000Z,11.62
2022-08-21T11:13:01.000Z,11.52
2022-08-21T11:14:02.000Z,11.50
2022-08-21T11:15:00.000Z,11.69
2022-08-21T11:16:05.000Z,11.31
2022-08-21T11:17:12.000Z,10.94
2022-08-21T11:18:16.000Z,10.79
2022-08-21T11:19:02.000Z,10.56
2022-08-21T11:20:02.000Z,10.66
2022-08-21T11:21:03.000Z,10.77
2022-08-21T11:22:00.000Z,10.78
2022-08-21T11:23:04.000Z,10.88
2022-08-21T11:24:02.000Z,10.78
2022-08-21T11:25:01.000Z,10.90
2022-08-21T11:26:00.000Z,10.89
2022-08-21T11:27:04.000Z,10.93
2022-08-21T11:28:10.000Z,10.98
2022-08-21T11:29:05.000Z,11.18
2022-08-21T11:29:56.000Z,11.08
2022-08-21T11:31:06.000Z,11.15
2022-08-21T11:32:02.000Z,11.28
2022-08-21T11:33:03.000Z,11.23
2022-08-21T11:34:16.000Z,11.33
2022-08-21T11:35:07.000Z,11.38
2022-08-21T11:36:02.000Z,11.35
2022-08-21T11:37:17.000Z,11.43
2022-08-21T11:38:03.000Z,10.71
2022-08-21T11:39:01.000Z,10.59
2022-08-21T11:40:03.000Z,10.80
2022-08-21T11:41:15.000Z,10.92
2022-08-21T11:42:15.000Z,11.12
2022-08-21T11:43:15.000Z,10.66
2022-08-21T11:44:05.000Z,10.77
2022-08-21T11:45:10.000Z,10.71
2022-08-21T11:46:09.000Z,10.32
2022-08-21T11:47:04.000Z,10.47
2022-08-21T11:48:07.000Z,10.40
2022-08-21T11:49:02.000Z,10.17
2022-08-21T11:50:05.000Z,10.25
2022-08-21T11:50:54.000Z,10.06
2022-08-21T11:52:05.000Z,10.48
2022-08-21T11:53:12.000Z,10.49
2022-08-21T11:54:13.000Z,10.59
2022-08-21T11:55:03.000Z,10.47
2022-08-21T11:56:04.000Z,10.54
2022-08-21T11:57:02.000Z,10.67
2022-08-21T11:58:03.000Z,10.84
2022-08-21T11:58:56.000Z,10.23
2022-08-21T11:59:59.000Z,10.44
2022-08-21T12:01:05.000Z,10.53
2022-08-21T12:01:53.000Z,10.12
2022-08-21T12:02:55.000Z,10.29
2022-08-21T12:04:00.000Z,10.07
2022-08-21T12:04:59.000Z,9.99
2022-08-21T12:05:59.000Z,9.77
2022-08-21T12:06:52.000Z,10.03
2022-08-21T12:08:02.000Z,10.24
2022-08-21T12:08:59.000Z,10.12
2022-08-21T12:09:55.000Z,10.29
2022-08-21T12:11:02.000Z,10.03
2022-08-21T12:12:09.000Z,10.39
2022-08-21T12:12:52.000Z,10.73
2022-08-21T12:13:59.000Z,10.37
2022-08-21T12:15:08.000Z,10.39
2022-08-21T12:16:03.000Z,10.62
2022-08-21T12:17:04.000Z,10.71
2022-08-21T12:18:00.000Z,10.55
2022-08-21T12:19:14.000Z,10.55
2022-08-21T12:19:58.000Z,10.61
2022-08-21T12:21:15.000Z,10.62
2022-08-21T12:22:02.000Z,10.27
2022-08-21T12:23:03.000Z,10.52
2022-08-21T12:24:02.000Z,10.01
2022-08-21T12:25:06.000Z,10.18
2022-08-21T12:26:03.000Z,10.15
2022-08-21T12:27:12.000Z,10.24
2022-08-21T12:28:05.000Z,9.94
2022-08-21T12:29:10.000Z,9.65
2022-08-21T12:29:58.000Z,9.98
2022-08-21T12:30:53.000Z,10.40
2022-08-21T12:32:18.000Z,10.26
2022-08-21T12:32:59.000Z,10.32
2022-08-21T12:34:03.000Z,10.26
2022-08-21T12:35:05.000Z,10.35
2022-08-21T12:36:04.000Z,10.48
2022-08-21T12:36:59.000Z,10.49
2022-08-21T12:38:02.000Z,10.00
2022-08-21T12:39:12.000Z,9.91
2022-08-21T12:39:57.000Z,10.18
2022-08-21T12:41:03.000Z,10.57
2022-08-21T12:42:25.000Z,9.80
2022-08-21T12:42:56.000Z,9.60
2022-08-21T12:44:01.000Z,10.30
2022-08-21T12:45:01.000Z,9.85
2022-08-21T12:45:52.000Z,9.92
2022-08-21T12:46:59.000Z,10.41
2022-08-21T12:48:01.000Z,10.14
2022-08-21T12:48:59.000Z,9.31
2022-08-21T12:50:01.000Z,9.44
2022-08-21T12:50:55.000Z,9.90
2022-08-21T12:52:00.000Z,9.59
2022-08-21T12:53:02.000Z,9.76
2022-08-21T12:53:55.000Z,9.47